createdAt,value
2022-10-05T00:03:25.529Z,98703.75
2022-10-05T00:08:31.923Z,98710.69
2022-10-05T00:13:33.919Z,98700.47
2022-10-05T00:18:35.934Z,98702.78
2022-10-05T00:23:37.770Z,98700.81
2022-10-05T00:28:41.348Z,98697.31
2022-10-05T00:33:43.239Z,98693.47
2022-10-05T00:38:45.291Z,98702.03
2022-10-05T00:44:16.096Z,98696.59
2022-10-05T00:49:20.997Z,98682.84
2022-10-05T00:54:40.634Z,98674.13
2022-10-05T00:59:45.533Z,98685.69
2022-10-05T01:05:04.438Z,98682.97
2022-10-05T01:10:32.734Z,98688.88
2022-10-05T01:15:49.770Z,98694.88
2022-10-05T01:21:10.401Z,98688.41
2022-10-05T01:26:38.001Z,98670.94
2022-10-05T01:32:08.290Z,98676.38
2022-10-05T01:37:27.377Z,98676.38
2022-10-05T01:42:30.471Z,98672.81
2022-10-05T01:47:45.951Z,98649.53
2022-10-05T01:52:50.734Z,98656.28
2022-10-05T01:58:20.283Z,98652.91
2022-10-05T02:03:31.011Z,98644.31
2022-10-05T02:09:06.057Z,98639.41
2022-10-05T02:14:23.097Z,98643.53
2022-10-05T02:19:38.056Z,98644.50
2022-10-05T02:24:49.021Z,98653.94
2022-10-05T02:29:54.230Z,98652.31
2022-10-05T02:35:02.151Z,98644.19
2022-10-05T02:40:25.657Z,98654.75
2022-10-05T02:45:46.993Z,98659.91
2022-10-05T02:50:55.893Z,98659.78
2022-10-05T02:55:59.389Z,98660.81
2022-10-05T03:01:27.707Z,98649.41
2022-10-05T03:06:36.642Z,98638.38
2022-10-05T03:11:47.037Z,98643.81
2022-10-05T03:17:24.946Z,98629.06
2022-10-05T03:22:50.232Z,98631.44
2022-10-05T03:28:09.118Z,98629.94
2022-10-05T03:33:29.514Z,98616.75
2022-10-05T03:38:58.542Z,98621.97
2022-10-05T03:44:37.761Z,98626.59
2022-10-05T03:49:42.833Z,98620.81
2022-10-05T03:54:49.404Z,98623.47
2022-10-05T04:00:02.648Z,98630.50
2022-10-05T04:05:21.893Z,98633.47
2022-10-05T04:10:29.174Z,98627.34
2022-10-05T04:15:37.836Z,98630.66
2022-10-05T04:20:47.606Z,98629.53
2022-10-05T04:25:54.293Z,98631.78
2022-10-05T04:30:57.244Z,98633.56
2022-10-05T04:36:20.897Z,98625.22
2022-10-05T04:41:31.995Z,98625.56
2022-10-05T04:46:36.798Z,98638.97
2022-10-05T04:51:41.919Z,98642.72
2022-10-05T04:56:52.861Z,98655.06
2022-10-05T05:02:03.581Z,98656.91
2022-10-05T05:07:15.294Z,98660.53
2022-10-05T05:12:23.127Z,98663.91
2022-10-05T05:17:43.376Z,98664.38
2022-10-05T05:22:57.466Z,98670.06
2022-10-05T05:28:06.078Z,98675.09
2022-10-05T05:33:14.018Z,98677.34
2022-10-05T05:38:40.509Z,98678.50
2022-10-05T05:44:23.907Z,98677.44
2022-10-05T05:49:57.385Z,98676.72
2022-10-05T05:55:30.325Z,98674.78
2022-10-05T06:00:42.340Z,98680.84
2022-10-05T06:05:50.037Z,98686.91
2022-10-05T06:11:21.982Z,98691.38
2022-10-05T06:16:34.048Z,98690.31
2022-10-05T06:21:44.537Z,98692.88
2022-10-05T06:27:20.981Z,98675.81
2022-10-05T06:32:29.649Z,98680.16
2022-10-05T06:37:46.083Z,98674.53
2022-10-05T06:43:06.167Z,98679.03
2022-10-05T06:48:35.221Z,98671.25
2022-10-05T06:54:29.387Z,98653.22
2022-10-05T07:00:03.944Z,98656.66
2022-10-05T07:06:00.312Z,98660.31
2022-10-05T07:11:15.128Z,98670.50
2022-10-05T07:16:41.551Z,98654.22
2022-10-05T07:21:57.544Z,98641.03
2022-10-05T07:27:07.074Z,98652.44
2022-10-05T07:32:24.191Z,98648.06
2022-10-05T07:37:57.830Z,98646.50
2022-10-05T07:43:14.666Z,98649.56
2022-10-05T07:48:47.435Z,98639.97
2022-10-05T07:54:15.886Z,98639.63
2022-10-05T07:59:59.613Z,98641.22
2022-10-05T08:05:13.508Z,98629.47
2022-10-05T08:10:55.344Z,98633.00
2022-10-05T08:16:12.681Z,98633.34
2022-10-05T08:21:19.644Z,98638.03
2022-10-05T08:26:32.069Z,98624.66
2022-10-05T08:31:37.390Z,98618.81
2022-10-05T08:36:39.145Z,98625.88
2022-10-05T08:42:19.494Z,98611.69
2022-10-05T08:47:47.359Z,98605.78
2022-10-05T08:53:15.019Z,98600.59
2022-10-05T08:58:41.351Z,98602.50
2022-10-05T09:04:03.885Z,98589.94
2022-10-05T09:09:17.825Z,98597.47
2022-10-05T09:14:32.656Z,98596.31
2022-10-05T09:20:15.166Z,98582.88
2022-10-05T09:26:10.393Z,98577.34
2022-10-05T09:32:00.643Z,98579.16
2022-10-05T09:37:46.262Z,98570.75
2022-10-05T09:42:59.979Z,98575.34
2022-10-05T09:48:37.505Z,98574.13
2022-10-05T09:54:11.821Z,98565.69
2022-10-05T09:59:55.046Z,98569.88
2022-10-05T10:05:31.907Z,98571.81
2022-10-05T10:11:08.311Z,98563.09
2022-10-05T10:16:31.224Z,98557.94
2022-10-05T10:22:04.512Z,98550.25
2022-10-05T10:27:33.610Z,98551.59
2022-10-05T10:33:03.279Z,98548.34
2022-10-05T10:38:35.951Z,98548.69
2022-10-05T10:44:08.500Z,98551.06
2022-10-05T10:49:36.795Z,98550.47
2022-10-05T10:55:09.818Z,98541.50
2022-10-05T11:00:20.297Z,98541.63
2022-10-05T11:05:28.150Z,98529.09
2022-10-05T11:10:39.227Z,98531.16
2022-10-05T11:16:00.831Z,98541.22
2022-10-05T11:21:11.919Z,98527.50
2022-10-05T11:26:32.587Z,98520.94
2022-10-05T11:32:10.131Z,98522.00
2022-10-05T11:37:40.208Z,98515.19
2022-10-05T11:42:50.659Z,98517.00
2022-10-05T11:48:01.248Z,98509.00
2022-10-05T11:53:25.367Z,98502.47
2022-10-05T11:58:33.775Z,98502.31
2022-10-05T12:03:57.174Z,98502.38
2022-10-05T12:09:40.246Z,98495.19
2022-10-05T12:15:03.385Z,98501.03
2022-10-05T12:20:42.141Z,98491.34
2022-10-05T12:25:53.742Z,98487.34
2022-10-05T12:30:58.648Z,98482.94
2022-10-05T12:36:12.258Z,98478.59
2022-10-05T12:41:48.152Z,98471.34
2022-10-05T12:47:07.220Z,98469.09
2022-10-05T12:52:40.129Z,98474.16
2022-10-05T12:58:06.641Z,98474.31
2022-10-05T13:03:27.786Z,98468.69
2022-10-05T13:08:55.722Z,98468.56
2022-10-05T13:14:03.354Z,98469.75
2022-10-05T13:19:23.793Z,98473.09
2022-10-05T13:24:44.029Z,98466.56
2022-10-05T13:30:13.421Z,98464.56
2022-10-05T13:35:34.595Z,98458.41
2022-10-05T13:41:13.190Z,98463.94
2022-10-05T13:47:09.251Z,98463.63
2022-10-05T13:52:29.267Z,98463.34
2022-10-05T13:57:53.072Z,98455.06
2022-10-05T14:03:01.074Z,98445.78
2022-10-05T14:08:02.911Z,98457.03
2022-10-05T14:13:31.975Z,98446.66
2022-10-05T14:18:37.867Z,98446.72
2022-10-05T14:23:39.710Z,98458.63
2022-10-05T14:28:43.736Z,98458.84
2022-10-05T14:33:45.648Z,98453.03
2022-10-05T14:39:02.186Z,98448.94
2022-10-05T14:44:09.904Z,98443.13
2022-10-05T14:49:25.788Z,98442.22
2022-10-05T14:54:33.684Z,98456.16
2022-10-05T14:59:50.794Z,98439.63
2022-10-05T15:05:05.454Z,98456.31
2022-10-05T15:10:19.252Z,98448.75
2022-10-05T15:15:39.787Z,98456.69
2022-10-05T15:20:56.304Z,98450.75
2022-10-05T15:26:10.737Z,98461.53
2022-10-05T15:31:43.001Z,98453.13
2022-10-05T15:37:15.126Z,98455.16
2022-10-05T15:42:22.659Z,98455.47
2022-10-05T15:47:34.335Z,98462.91
2022-10-05T15:52:40.788Z,98458.53
2022-10-05T15:57:53.589Z,98453.44
2022-10-05T16:02:58.330Z,98456.94
2022-10-05T16:08:19.504Z,98458.00
2022-10-05T16:13:38.053Z,98446.53
2022-10-05T16:18:57.538Z,98446.09
2022-10-05T16:24:17.434Z,98456.50
2022-10-05T16:29:24.030Z,98452.47
2022-10-05T16:34:47.108Z,98452.56
2022-10-05T16:39:53.211Z,98459.63
2022-10-05T16:44:58.073Z,98452.16
2022-10-05T16:50:43.241Z,98456.22
2022-10-05T16:55:52.637Z,98467.34
2022-10-05T17:01:23.541Z,98466.63
2022-10-05T17:06:44.436Z,98471.16
2022-10-05T17:12:10.586Z,98467.03
2022-10-05T17:17:28.208Z,98467.63
2022-10-05T17:22:50.893Z,98464.28
2022-10-05T17:28:21.975Z,98457.84
2022-10-05T17:33:30.582Z,98462.72
2022-10-05T17:38:35.365Z,98463.22
2022-10-05T17:43:37.793Z,98461.31
2022-10-05T17:48:52.519Z,98453.94
2022-10-05T17:54:34.063Z,98455.53
2022-10-05T17:59:55.795Z,98444.53
2022-10-05T18:05:07.069Z,98439.88
2022-10-05T18:10:11.967Z,98457.56
2022-10-05T18:15:26.379Z,98451.78
2022-10-05T18:20:30.421Z,98459.72
2022-10-05T18:26:26.642Z,98456.66
2022-10-05T18:31:45.409Z,98471.75
2022-10-05T18:37:12.368Z,98459.22
2022-10-05T18:42:30.333Z,98470.88
2022-10-05T18:47:49.596Z,98463.66
2022-10-05T18:53:07.690Z,98476.47
2022-10-05T18:58:14.496Z,98472.03
2022-10-05T19:03:28.243Z,98470.41
2022-10-05T19:08:36.348Z,98478.25
2022-10-05T19:14:00.910Z,98478.22
2022-10-05T19:19:29.411Z,98483.72
2022-10-05T19:24:55.867Z,98493.13
2022-10-05T19:30:22.080Z,98489.16
2022-10-05T19:35:58.341Z,98487.63
2022-10-05T19:41:20.178Z,98496.22
2022-10-05T19:47:10.258Z,98506.78
2022-10-05T19:52:21.147Z,98499.28
2022-10-05T19:57:23.134Z,98506.34
2022-10-05T20:02:28.126Z,98500.84
2022-10-05T20:07:30.031Z,98508.72
2022-10-05T20:12:51.103Z,98504.78
2022-10-05T20:18:11.795Z,98513.88
2022-10-05T20:23:24.630Z,98506.41
2022-10-05T20:28:31.343Z,98522.91
2022-10-05T20:33:34.532Z,98541.78
2022-10-05T20:38:40.575Z,98536.28
2022-10-05T20:43:43.326Z,98555.91
2022-10-05T20:48:45.893Z,98567.69
2022-10-05T20:53:47.698Z,98570.84
2022-10-05T20:58:50.483Z,98574.34
2022-10-05T21:03:53.608Z,98577.09
2022-10-05T21:08:55.771Z,98596.72
2022-10-05T21:14:00.001Z,98602.22
2022-10-05T21:19:09.609Z,98588.09
2022-10-05T21:24:15.567Z,98602.59
2022-10-05T21:29:17.480Z,98591.97
2022-10-05T21:34:19.348Z,98597.78
2022-10-05T21:39:21.221Z,98597.31
2022-10-05T21:44:23.004Z,98603.13
2022-10-05T21:49:25.877Z,98584.19
2022-10-05T21:54:28.708Z,98600.69
2022-10-05T21:59:32.993Z,98599.44
2022-10-05T22:04:34.807Z,98611.22
2022-10-05T22:09:36.627Z,98612.41
2022-10-05T22:14:38.482Z,98620.25
2022-10-05T22:19:40.738Z,98623.03
2022-10-05T22:24:42.658Z,98623.03
2022-10-05T22:29:44.632Z,98630.13
2022-10-05T22:34:46.523Z,98629.72
2022-10-05T22:39:49.070Z,98621.47
2022-10-05T22:44:50.867Z,98632.47
2022-10-05T22:49:52.697Z,98652.13
2022-10-05T22:54:54.703Z,98660.00
2022-10-05T22:59:56.513Z,98662.75
2022-10-05T23:04:59.121Z,98682.84
2022-10-05T23:10:00.960Z,98682.84
2022-10-05T23:15:03.406Z,98676.19
2022-10-05T23:20:07.475Z,98674.19
2022-10-05T23:25:09.599Z,98689.13
2022-10-05T23:30:12.954Z,98693.06
2022-10-05T23:35:15.132Z,98704.09
2022-10-05T23:40:16.988Z,98720.63
2022-10-05T23:45:18.803Z,98722.19
2022-10-05T23:50:21.241Z,98730.88
2022-10-05T23:55:23.092Z,98733.22
